Flight Track Log - Related Links

Times and Time Zones

All times are in EDT time to prevent confusion due to time zone crossing. See the JBU408 flight status page for this flight to view local times or setup timezone preferences in your user account.

Time Position Orientation Groundspeed Altitude Reporting Facility
EDT Latitude Longitude Course Direction KTS MPH feet Rate Location/Type
Fri 02:16:15 AM 33.4210 -111.9754 284° West  Level FlightAware Approximate
Fri 02:16:47 AM 33.4333 -112.0333 244° Southwest 148 170 1,900  Level Phoenix TRACON
Fri 02:18:11 AM 33.4000 -112.1167 239° Southwest 223 257 3,900 1,958 Climbing Phoenix TRACON
Fri 02:19:11 AM 33.3667 -112.1833 132° Southeast 261 300 6,600 2,579 Climbing Phoenix TRACON
Fri 02:20:12 AM 33.3167 -112.1167 68° East 305 351 9,100 1,983 Climbing Phoenix TRACON
Fri 02:21:12 AM 33.3500 -112.0167 75° East 334 384 10,600 1,492 Climbing Phoenix TRACON
Fri 02:23:17 AM 33.4083 -111.7633 76° East 395 455 13,700 1,569 Climbing Albuquerque Center
Fri 02:27:19 AM 33.5250 -111.1831 77° East 470 541 20,200 1,486 Climbing Albuquerque Center
Fri 02:30:21 AM 33.6131 -110.7169 69° East 480 552 24,200 588 Climbing Albuquerque Center
Fri 02:45:41 AM 34.3775 -108.2706 77° East 519 597 31,000 416 Climbing Albuquerque Center
Fri 02:46:42 AM 34.4108 -108.0972 88° East 533 613 31,000  Level Albuquerque Center
Fri 02:47:42 AM 34.4167 -107.9194 91° East 537 618 31,000  Level Albuquerque Center
Fri 02:48:43 AM 34.4142 -107.7417 91° East 534 615 31,000  Level Albuquerque Center
Fri 02:49:43 AM 34.4111 -107.5667 91° East 526 605 31,000  Level Albuquerque Center
Fri 02:50:44 AM 34.4081 -107.3903 91° East 526 605 31,000  Level Albuquerque Center
Fri 02:51:44 AM 34.4047 -107.2136 91° East 527 606 31,000  Level Albuquerque Center
Fri 02:52:44 AM 34.4011 -107.0350 91° East 532 612 31,000  Level Albuquerque Center
Fri 02:53:45 AM 34.3972 -106.8261 92° East 526 605 31,000  Level Albuquerque Center
Fri 02:54:45 AM 34.3917 -106.6519 91° East 522 601 31,000  Level Albuquerque Center
Fri 02:55:46 AM 34.3883 -106.4783 92° East 521 600 31,000  Level Albuquerque Center
Fri 02:56:46 AM 34.3831 -106.3017 91° East 524 603 31,000  Level Albuquerque Center
Fri 02:57:47 AM 34.3789 -106.1147 92° East 524 603 31,000 50 Level Albuquerque Center
Fri 02:58:47 AM 34.3733 -105.9350 91° East 528 608 31,100  Climbing Albuquerque Center
Fri 02:59:48 AM 34.3694 -105.7553 82° East 530 610 31,000 -50 Descending Albuquerque Center
Fri 03:00:48 AM 34.3894 -105.5789 74° East 529 609 31,000  Level Albuquerque Center
Fri 03:01:49 AM 34.4292 -105.4056 74° East 530 610 31,000  Level Albuquerque Center
Fri 03:02:49 AM 34.4689 -105.2356 74° East 524 603 31,000  Level Albuquerque Center
Fri 03:03:50 AM 34.5092 -105.0658 74° East 522 601 31,000  Level Albuquerque Center
Fri 03:04:50 AM 34.5486 -104.8978 75° East 519 597 31,000  Level Albuquerque Center
Fri 03:05:51 AM 34.5867 -104.7286 75° East 516 594 31,000  Level Albuquerque Center
Fri 03:06:51 AM 34.6244 -104.5625 74° East 512 589 31,000  Level Albuquerque Center
Fri 03:07:52 AM 34.6625 -104.3975 75° East 508 585 31,000  Level Albuquerque Center
Fri 03:08:52 AM 34.7008 -104.2278 75° East 515 593 31,000  Level Albuquerque Center
Fri 03:09:53 AM 34.7381 -104.0578 75° East 518 596 31,000 50 Level Albuquerque Center
Fri 03:10:53 AM 34.7758 -103.8886 75° East 519 597 31,100  Climbing Albuquerque Center
Fri 03:11:54 AM 34.8133 -103.7175 75° East 521 600 31,000 -50 Descending Albuquerque Center
Fri 03:12:54 AM 34.8508 -103.5483 76° East 519 597 31,000  Level Albuquerque Center
Fri 03:13:55 AM 34.8869 -103.3772 75° East 520 598 31,000  Level Albuquerque Center
Fri 03:14:55 AM 34.9242 -103.2058 75° East 520 598 31,000  Level Albuquerque Center
Fri 03:15:56 AM 34.9606 -103.0347 76° East 519 597 31,000  Level Albuquerque Center
Fri 03:16:56 AM 34.9967 -102.8633 76° East 519 597 31,000  Level Albuquerque Center
Fri 03:17:57 AM 35.0278 -102.7156 76° East 517 595 31,000  Level Albuquerque Center
Fri 03:18:57 AM 35.0625 -102.5472 76° East 513 590 31,000  Level Albuquerque Center
Fri 03:19:58 AM 35.0969 -102.3783 76° East 513 590 31,000  Level Albuquerque Center
Fri 03:20:58 AM 35.1322 -102.2069 76° East 518 596 31,000 50 Level Albuquerque Center
Fri 03:21:59 AM 35.1678 -102.0347 75° East 521 600 31,100 50 Climbing Albuquerque Center
Fri 03:22:59 AM 35.2111 -101.8325 68° East 525 604 31,100 -50 Level Albuquerque Center
Fri 03:23:59 AM 35.2658 -101.6672 57° Northeast 523 602 31,000 -50 Descending Albuquerque Center
Fri 03:25:00 AM 35.3414 -101.5231 51° Northeast 514 592 31,000  Level Albuquerque Center
Fri 03:26:00 AM 35.4314 -101.3867 53° Northeast 510 587 31,000  Level Albuquerque Center
Fri 03:27:01 AM 35.5092 -101.2600 53° Northeast 508 585 31,000  Level Albuquerque Center
Fri 03:28:01 AM 35.5925 -101.1236 53° Northeast 502 578 31,000  Level Albuquerque Center
Fri 03:29:02 AM 35.6761 -100.9886 53° Northeast 498 573 31,000  Level Albuquerque Center
Fri 03:30:02 AM 35.7672 -100.8403 53° Northeast 497 572 31,000  Level Albuquerque Center
Fri 03:31:03 AM 35.8506 -100.7019 53° Northeast 499 574 31,000  Level Albuquerque Center
Fri 03:32:03 AM 35.9344 -100.5625 53° Northeast 502 578 31,000  Level Albuquerque Center
Fri 03:33:04 AM 36.0181 -100.4233 53° Northeast 503 579 31,000  Level Albuquerque Center
Fri 03:34:04 AM 36.1028 -100.2839 53° Northeast 503 579 31,000  Level Albuquerque Center
Fri 03:35:05 AM 36.1872 -100.1431 53° Northeast 505 581 31,000  Level Albuquerque Center
Fri 03:36:05 AM 36.2711 -100.0025 63° Northeast 505 581 31,000  Level Albuquerque Center
Fri 03:37:06 AM 36.3347 -99.8486 74° East 503 579 31,000  Level Albuquerque Center
Fri 03:38:18 AM 36.3817 -99.6456 79° East 484 557 31,000  Level Kansas City Center
Fri 03:39:18 AM 36.4075 -99.4819 79° East 479 551 31,000  Level Kansas City Center
Fri 03:40:18 AM 36.4331 -99.3158 78° East 484 557 31,000 50 Level Kansas City Center
Fri 03:41:18 AM 36.4606 -99.1497 79° East 489 563 31,100 250 Climbing Kansas City Center
Fri 03:42:18 AM 36.4858 -98.9806 77° East 489 563 31,500 700 Climbing Kansas City Center
Fri 03:43:18 AM 36.5169 -98.8169 78° East 489 563 32,500 800 Climbing Kansas City Center
Fri 03:44:18 AM 36.5406 -98.6814 78° East 489 563 33,100 700 Climbing Kansas City Center
Fri 03:45:18 AM 36.5717 -98.4994 78° East 489 563 33,900 800 Climbing Kansas City Center
Fri 03:46:18 AM 36.6025 -98.3250 78° East 489 563 34,700 550 Climbing Kansas City Center
Fri 03:47:18 AM 36.6306 -98.1581 79° East 489 563 35,000 150 Climbing Kansas City Center
Fri 03:48:18 AM 36.6567 -97.9911 77° East 494 568 35,000  Level Kansas City Center
Fri 03:49:18 AM 36.6861 -97.8292 78° East 487 560 35,000  Level Kansas City Center
Fri 03:50:18 AM 36.7136 -97.6619 79° East 487 560 35,000  Level Kansas City Center
Fri 03:51:18 AM 36.7411 -97.4919 77° East 487 560 35,000  Level Kansas City Center
Fri 03:52:18 AM 36.7769 -97.3014 79° East 504 580 35,000  Level Kansas City Center
Fri 03:53:18 AM 36.8039 -97.1311 79° East 504 580 35,000  Level Kansas City Center
Fri 03:54:18 AM 36.8303 -96.9633 79° East 504 580 35,000  Level Kansas City Center
Fri 03:55:18 AM 36.8567 -96.7903 78° East 504 580 35,000  Level Kansas City Center
Fri 03:56:18 AM 36.8847 -96.6197 79° East 504 580 35,000  Level Kansas City Center
Fri 03:57:18 AM 36.9106 -96.4542 79° East 498 573 35,000  Level Kansas City Center
Fri 03:58:18 AM 36.9361 -96.2861 78° East 493 567 35,000  Level Kansas City Center
Fri 03:59:18 AM 36.9636 -96.1178 80° East 488 562 35,000  Level Kansas City Center
Fri 04:00:18 AM 36.9889 -95.9439 80° East 488 562 35,000 50 Level Kansas City Center
Fri 04:01:18 AM 37.0136 -95.7728 79° East 494 568 35,100 50 Climbing Kansas City Center
Fri 04:02:18 AM 37.0403 -95.6014 79° East 499 574 35,100 -50 Level Kansas City Center
Fri 04:03:18 AM 37.0625 -95.4508 80° East 499 574 35,000 -50 Descending Kansas City Center
Fri 04:04:18 AM 37.0867 -95.2844 79° East 487 560 35,000 -50 Level Kansas City Center
Fri 04:05:18 AM 37.1128 -95.1208 80° East 481 554 34,900  Descending Kansas City Center
Fri 04:06:18 AM 37.1364 -94.9542 80° East 481 554 35,000 50 Climbing Kansas City Center
Fri 04:07:18 AM 37.1597 -94.7900 80° East 481 554 35,000  Level Kansas City Center
Fri 04:08:18 AM 37.1831 -94.6181 79° East 487 560 35,000  Level Kansas City Center
Fri 04:09:18 AM 37.2081 -94.4486 80° East 487 560 35,000  Level Kansas City Center
Fri 04:10:18 AM 37.2308 -94.2792 81° East 487 560 35,000  Level Kansas City Center
Fri 04:11:18 AM 37.2533 -94.0964 81° East 483 556 35,000  Level Kansas City Center
Fri 04:12:18 AM 37.2756 -93.9239 80° East 483 556 35,000  Level Kansas City Center
Fri 04:13:18 AM 37.2997 -93.7542 82° East 483 556 35,000  Level Kansas City Center
Fri 04:14:18 AM 37.3192 -93.5817 79° East 483 556 35,000  Level Kansas City Center
Fri 04:15:18 AM 37.3450 -93.4114 81° East 483 556 35,000  Level Kansas City Center
Fri 04:16:18 AM 37.3661 -93.2414 81° East 489 563 35,000  Level Kansas City Center
Fri 04:17:18 AM 37.3872 -93.0711 81° East 489 563 35,000  Level Kansas City Center
Fri 04:18:18 AM 37.4081 -92.8981 80° East 489 563 35,000  Level Kansas City Center
Fri 04:19:18 AM 37.4325 -92.7222 64° Northeast 495 570 35,000  Level Kansas City Center
Fri 04:20:18 AM 37.4928 -92.5639 64° Northeast 495 570 35,000 50 Level Kansas City Center
Fri 04:21:18 AM 37.5525 -92.4078 65° Northeast 495 570 35,100  Climbing Kansas City Center
Fri 04:22:18 AM 37.6122 -92.2489 63° Northeast 490 564 35,000 -50 Descending Kansas City Center
Fri 04:23:18 AM 37.6739 -92.0972 65° Northeast 490 564 35,000  Level Kansas City Center
Fri 04:24:18 AM 37.7333 -91.9378 64° Northeast 490 564 35,000  Level Kansas City Center
Fri 04:25:18 AM 37.7922 -91.7836 64° Northeast 490 564 35,000  Level Kansas City Center
Fri 04:26:18 AM 37.8533 -91.6261 67° East 490 564 35,000  Level Kansas City Center
Fri 04:27:18 AM 37.9078 -91.4661 61° Northeast 490 564 35,000  Level Kansas City Center
Fri 04:28:18 AM 37.9744 -91.3106 66° East 490 564 35,000  Level Kansas City Center
Fri 04:29:18 AM 38.0308 -91.1525 66° East 490 564 35,000  Level Kansas City Center
Fri 04:30:18 AM 38.0808 -91.0078 65° Northeast 490 564 35,000  Level Kansas City Center
Fri 04:31:18 AM 38.1425 -90.8386 64° Northeast 484 557 35,000  Level Kansas City Center
Fri 04:32:18 AM 38.2022 -90.6825 66° East 484 557 35,000  Level Kansas City Center
Fri 04:33:18 AM 38.2517 -90.5397 65° Northeast 484 557 35,000  Level Kansas City Center
Fri 04:34:18 AM 38.3128 -90.3722 65° Northeast 478 550 35,000  Level Kansas City Center
Fri 04:35:18 AM 38.3642 -90.2317 66° East 473 544 35,000  Level Kansas City Center
Fri 04:36:18 AM 38.4247 -90.0611 66° East 473 544 35,000  Level Kansas City Center
Fri 04:37:18 AM 38.4700 -89.9339 66° East 473 544 35,000  Level Kansas City Center
Fri 04:38:18 AM 38.5261 -89.7711 65° Northeast 481 554 35,000  Level Kansas City Center
Fri 04:39:18 AM 38.5917 -89.5889 66° East 479 551 35,000  Level Kansas City Center
Fri 04:40:18 AM 38.6458 -89.4336 66° East 474 545 35,000  Level Kansas City Center
Fri 04:41:18 AM 38.6997 -89.2808 66° East 468 539 35,000  Level Kansas City Center
Fri 04:42:18 AM 38.7533 -89.1281 66° East 469 540 35,000  Level Kansas City Center
Fri 04:43:18 AM 38.8067 -88.9722 66° East 469 540 35,000  Level Kansas City Center
Fri 04:44:18 AM 38.8544 -88.8353 66° East 469 540 35,000  Level Kansas City Center
Fri 04:45:18 AM 38.9075 -88.6789 66° East 469 540 35,000  Level Kansas City Center
Fri 04:47:46 AM 39.0456 -88.2711 66° East 469 540 35,000  Level Indianapolis Center
Fri 04:48:46 AM 39.1022 -88.1089 68° East 474 545 35,000  Level Indianapolis Center
Fri 04:49:46 AM 39.1519 -87.9514 66° East 474 545 35,000  Level Indianapolis Center
Fri 04:50:46 AM 39.1964 -87.8228 67° East 474 545 35,000  Level Indianapolis Center
Fri 04:51:46 AM 39.2525 -87.6492 68° East 474 545 35,000  Level Indianapolis Center
Fri 04:52:46 AM 39.3064 -87.4725 67° East 474 545 35,000  Level Indianapolis Center
Fri 04:53:46 AM 39.3594 -87.3142 67° East 479 551 35,000  Level Indianapolis Center
Fri 04:54:46 AM 39.4103 -87.1556 68° East 479 551 35,000  Level Indianapolis Center
Fri 04:55:46 AM 39.4633 -86.9889 67° East 488 562 35,000  Level Indianapolis Center
Fri 04:56:46 AM 39.5158 -86.8300 68° East 482 555 35,000  Level Indianapolis Center
Fri 04:57:46 AM 39.5683 -86.6628 68° East 487 560 35,000  Level Indianapolis Center
Fri 04:58:46 AM 39.6181 -86.5031 68° East 482 555 35,000  Level Indianapolis Center
Fri 04:59:46 AM 39.6681 -86.3378 65° Northeast 488 562 35,000  Level Indianapolis Center
Fri 05:00:46 AM 39.7194 -86.1914 69° East 488 562 35,000  Level Indianapolis Center
Fri 05:01:46 AM 39.7733 -86.0072 68° East 495 570 35,000  Level Indianapolis Center
Fri 05:02:46 AM 39.8225 -85.8494 67° East 478 550 35,000  Level Indianapolis Center
Fri 05:03:46 AM 39.8733 -85.6914 69° East 473 544 35,000  Level Indianapolis Center
Fri 05:04:46 AM 39.9219 -85.5278 68° East 468 539 35,000  Level Indianapolis Center
Fri 05:05:46 AM 39.9706 -85.3667 68° East 468 539 35,000  Level Indianapolis Center
Fri 05:06:46 AM 40.0208 -85.2053 69° East 468 539 35,000  Level Indianapolis Center
Fri 05:07:46 AM 40.0689 -85.0408 69° East 473 544 35,000  Level Indianapolis Center
Fri 05:08:46 AM 40.1122 -84.8953 68° East 473 544 35,000  Level Indianapolis Center
Fri 05:09:46 AM 40.1619 -84.7331 70° East 478 550 35,000  Level Indianapolis Center
Fri 05:10:46 AM 40.2114 -84.5544 68° East 478 550 35,000  Level Indianapolis Center
Fri 05:11:46 AM 40.2606 -84.3919 68° East 478 550 35,000  Level Indianapolis Center
Fri 05:13:48 AM 40.3600 -84.0600 71° East 462 532 35,000  Level Cleveland Center
Fri 05:14:48 AM 40.4047 -83.8933 69° East 476 548 35,000  Level Cleveland Center
Fri 05:15:48 AM 40.4531 -83.7267 70° East 482 555 35,000  Level Cleveland Center
Fri 05:16:48 AM 40.4994 -83.5594 69° East 482 555 35,000  Level Cleveland Center
Fri 05:17:48 AM 40.5472 -83.3922 69° East 482 555 35,000  Level Cleveland Center
Fri 05:18:48 AM 40.5906 -83.2408 71° East 482 555 35,000  Level Cleveland Center
Fri 05:19:48 AM 40.6339 -83.0728 70° East 482 555 35,000  Level Cleveland Center
Fri 05:20:48 AM 40.6814 -82.9022 70° East 488 562 35,000  Level Cleveland Center
Fri 05:21:48 AM 40.7331 -82.7122 71° East 488 562 35,000  Level Cleveland Center
Fri 05:22:48 AM 40.7778 -82.5408 69° East 493 567 35,000  Level Cleveland Center
Fri 05:23:48 AM 40.8267 -82.3694 71° East 498 573 35,000  Level Cleveland Center
Fri 05:24:48 AM 40.8728 -82.1950 70° East 498 573 35,000  Level Cleveland Center
Fri 05:25:48 AM 40.9189 -82.0231 70° East 498 573 35,000  Level Cleveland Center
Fri 05:26:48 AM 40.9669 -81.8481 72° East 503 579 35,000  Level Cleveland Center
Fri 05:27:48 AM 41.0106 -81.6700 70° East 503 579 35,000  Level Cleveland Center
Fri 05:28:47 AM 41.0578 -81.4944 71° East 503 579 35,000  Level Cleveland Center
Fri 05:29:48 AM 41.1031 -81.3189 71° East 503 579 35,000  Level Cleveland Center
Fri 05:30:48 AM 41.1497 -81.1372 71° East 508 585 35,000 50 Level Cleveland Center
Fri 05:31:48 AM 41.1964 -80.9528 72° East 513 590 35,100  Climbing Cleveland Center
Fri 05:32:48 AM 41.2406 -80.7736 71° East 513 590 35,000 -50 Descending Cleveland Center
Fri 05:33:48 AM 41.2867 -80.5914 71° East 518 596 35,000 -50 Level Cleveland Center
Fri 05:34:48 AM 41.3283 -80.4311 72° East 518 596 34,900  Descending Cleveland Center
Fri 05:35:48 AM 41.3736 -80.2456 71° East 518 596 35,000 50 Climbing Cleveland Center
Fri 05:36:48 AM 41.4189 -80.0653 72° East 518 596 35,000  Level Cleveland Center
Fri 05:37:48 AM 41.4678 -79.8656 73° East 518 596 35,000 50 Level Cleveland Center
Fri 05:38:48 AM 41.5103 -79.6792 72° East 518 596 35,100  Climbing Cleveland Center
Fri 05:39:48 AM 41.5547 -79.4983 73° East 518 596 35,000 -50 Descending Cleveland Center
Fri 05:40:48 AM 41.5967 -79.3169 72° East 518 596 35,000  Level Cleveland Center
Fri 05:41:48 AM 41.6403 -79.1356 71° East 518 596 35,000  Level Cleveland Center
Fri 05:42:48 AM 41.6858 -78.9567 74° East 518 596 35,000  Level Cleveland Center
Fri 05:43:48 AM 41.7247 -78.7719 73° East 513 590 35,000  Level Cleveland Center
Fri 05:44:48 AM 41.7675 -78.5869 72° East 513 590 35,000  Level Cleveland Center
Fri 05:45:48 AM 41.8025 -78.4439 75° East 513 590 35,000  Level Cleveland Center
Fri 05:46:48 AM 41.8406 -78.2586 73° East 513 590 35,000  Level Cleveland Center
Fri 05:49:05 AM 41.9386 -77.8308 73° East 521 600 35,000  Level New York Center
Fri 05:50:03 AM 41.9783 -77.6508 73° East 511 588 35,000  Level New York Center
Fri 05:51:05 AM 42.0200 -77.4653 74° East 511 588 35,000  Level New York Center
Fri 05:53:26 AM 42.1136 -77.0308 74° East 503 579 35,000  Level Boston Center
Fri 05:54:26 AM 42.1522 -76.8458 74° East 508 585 35,000  Level Boston Center
Fri 05:55:26 AM 42.1903 -76.6636 73° East 508 585 35,000  Level Boston Center
Fri 05:56:26 AM 42.2353 -76.4617 76° East 508 585 35,000  Level Boston Center
Fri 05:57:26 AM 42.2661 -76.2981 74° East 503 579 35,000  Level Boston Center
Fri 05:58:26 AM 42.3081 -76.0956 75° East 503 579 35,000  Level Boston Center
Fri 05:59:26 AM 42.3453 -75.9125 75° East 503 579 35,000  Level Boston Center
Fri 06:00:26 AM 42.3819 -75.7261 75° East 503 579 35,000  Level Boston Center
Fri 06:01:26 AM 42.4183 -75.5453 75° East 503 579 35,000  Level Boston Center
Fri 06:02:26 AM 42.4544 -75.3611 76° East 509 586 35,000  Level Boston Center
Fri 06:03:26 AM 42.4883 -75.1797 75° East 504 580 35,000  Level Boston Center
Fri 06:04:26 AM 42.5239 -74.9953 75° East 504 580 35,000  Level Boston Center
Fri 06:05:26 AM 42.5614 -74.8053 75° East 509 586 35,000  Level Boston Center
Fri 06:06:26 AM 42.5939 -74.6372 76° East 513 590 35,000  Level Boston Center
Fri 06:07:26 AM 42.6311 -74.4297 90° East 504 580 35,000  Level Boston Center
Fri 06:08:26 AM 42.6317 -74.2603 92° East 504 580 35,000  Level Boston Center
Fri 06:09:26 AM 42.6267 -74.0458 94° East 504 580 35,000  Level Boston Center
Fri 06:10:26 AM 42.6167 -73.8508 92° East 510 587 35,000 -150 Level Boston Center
Fri 06:11:26 AM 42.6106 -73.6531 93° East 516 594 34,700 -1,050 Descending Boston Center
Fri 06:12:26 AM 42.6042 -73.4611 91° East 512 589 32,900 -2,500 Descending Boston Center
Fri 06:13:26 AM 42.6017 -73.2636 94° East 505 581 29,700 -2,450 Descending Boston Center
Fri 06:14:26 AM 42.5925 -73.0747 93° East 511 588 28,000 -2,050 Descending Boston Center
Fri 06:15:26 AM 42.5850 -72.8997 93° East 489 563 25,600 -2,200 Descending Boston Center
Fri 06:16:26 AM 42.5772 -72.7192 93° East 476 548 23,600 -1,950 Descending Boston Center
Fri 06:17:26 AM 42.5711 -72.5500 94° East 461 531 21,700 -1,700 Descending Boston Center
Fri 06:18:26 AM 42.5631 -72.4064 94° East 450 518 20,200 -1,700 Descending Boston Center
Fri 06:19:26 AM 42.5544 -72.2483 94° East 421 484 18,300 -2,400 Descending Boston Center
Fri 06:20:26 AM 42.5458 -72.0794 96° East 413 475 15,400 -2,150 Descending Boston Center
Fri 06:21:26 AM 42.5347 -71.9442 97° East 405 466 14,000 -1,400 Descending Boston Center
Fri 06:22:26 AM 42.5214 -71.7894 92° East 393 452 12,600 -1,200 Descending Boston Center
Fri 06:23:26 AM 42.5186 -71.6625 83° East 379 436 11,600 -850 Descending Boston Center
Fri 06:24:26 AM 42.5322 -71.5131 82° East 374 430 10,900 -800 Descending Boston Center
Fri 06:25:26 AM 42.5436 -71.3975 84° East 349 402 10,000 -1,582 Descending Boston Center
Fri 06:25:57 AM 42.5500 -71.3167 90° East 320 368 8,500 -2,471 Descending Boston TRACON
Fri 06:26:51 AM 42.5500 -71.2167 90° East 307 353 6,500 -2,000 Descending Boston TRACON
Fri 06:27:51 AM 42.5500 -71.1000 103° East 293 337 4,700 -1,300 Descending Boston TRACON
Fri 06:28:51 AM 42.5333 -71.0000 144° Southeast 267 307 3,900 -942 Descending Boston TRACON
Fri 06:29:52 AM 42.4833 -70.9500 194° South 229 264 2,800 -1,289 Descending Boston TRACON
Fri 06:30:52 AM 42.4333 -70.9667 200° South 164 189 1,300 -1,150 Descending Boston TRACON
Fri 06:31:52 AM 42.4000 -70.9833 200° South 136 157 500 -800 Descending Boston TRACON

Login

Don't have an account? Register now (free) for customized features, flight alerts, and more!